Time;durP1;ratioP1;P1;durP2;ratioP2;P2;SDS_P1;SDS_P2;PMS_P1;PMS_P2;Temp;Humidity;BMP_temperature;BMP_pressure;BME280_temperature;BME280_humidity;BME280_pressure;Samples;Min_cycle;Max_cycle;Signal;HPM_P1;HPM_P2
2022/06/18 00:01:39;;;;;;;0.00;0.00;;;;;;;;;;5066492;28;20293;-81
2022/06/18 00:04:07;;;;;;;0.00;0.00;;;;;;;;;;5070377;28;20209;-80
2022/06/18 00:06:35;;;;;;;0.00;0.00;;;;;;;;;;5066751;28;20288;-81
2022/06/18 00:09:02;;;;;;;0.10;0.10;;;;;;;;;;5070324;28;20382;-81
2022/06/18 00:14:14;;;;;;;0.00;0.00;;;;;;;;;;5068776;28;20223;-82
2022/06/18 00:16:40;;;;;;;0.00;0.00;;;;;;;;;;5067997;28;20261;-81
2022/06/18 00:19:06;;;;;;;0.00;0.00;;;;;;;;;;5069313;28;20404;-82
2022/06/18 00:21:33;;;;;;;0.00;0.00;;;;;;;;;;5067559;28;20305;-80
2022/06/18 00:24:00;;;;;;;0.00;0.00;;;;;;;;;;5069936;28;20256;-84
2022/06/18 00:26:26;;;;;;;0.00;0.00;;;;;;;;;;5066884;28;20238;-84
2022/06/18 00:28:53;;;;;;;0.00;0.00;;;;;;;;;;5070843;28;20243;-83
2022/06/18 00:31:21;;;;;;;0.00;0.00;;;;;;;;;;5065413;28;20241;-79
2022/06/18 00:33:47;;;;;;;0.00;0.00;;;;;;;;;;5072438;28;20209;-80
2022/06/18 00:36:15;;;;;;;0.00;0.00;;;;;;;;;;5064903;28;20592;-79
2022/06/18 00:38:43;;;;;;;0.00;0.00;;;;;;;;;;5072185;28;20234;-78
2022/06/18 00:41:12;;;;;;;0.00;0.00;;;;;;;;;;5064106;28;20243;-80
2022/06/18 00:43:41;;;;;;;0.00;0.00;;;;;;;;;;5072759;28;20204;-80
2022/06/18 00:46:12;;;;;;;0.00;0.00;;;;;;;;;;5063897;28;20246;-80
2022/06/18 00:48:44;;;;;;;0.00;0.00;;;;;;;;;;5072642;28;20191;-80
2022/06/18 00:51:13;;;;;;;0.00;0.00;;;;;;;;;;5064349;28;20581;-79
2022/06/18 00:53:42;;;;;;;0.00;0.00;;;;;;;;;;5072002;28;20203;-78
2022/06/18 00:56:11;;;;;;;0.00;0.00;;;;;;;;;;5063571;28;20240;-79
2022/06/18 00:58:40;;;;;;;0.00;0.00;;;;;;;;;;5072160;28;20322;-79
2022/06/18 01:01:11;;;;;;;0.00;0.00;;;;;;;;;;5063466;28;20580;-78
2022/06/18 01:03:38;;;;;;;0.00;0.00;;;;;;;;;;5072866;28;20290;-78
2022/06/18 01:06:12;;;;;;;0.00;0.00;;;;;;;;;;5062685;28;20240;-78
2022/06/18 01:08:39;;;;;;;0.00;0.00;;;;;;;;;;5071809;28;20210;-79
2022/06/18 01:11:09;;;;;;;0.00;0.00;;;;;;;;;;5061660;28;20279;-79
2022/06/18 01:13:38;;;;;;;0.00;0.00;;;;;;;;;;5071891;28;20269;-78
2022/06/18 01:16:05;;;;;;;0.00;0.00;;;;;;;;;;5062441;28;20246;-79
2022/06/18 01:18:32;;;;;;;0.73;0.73;;;;;;;;;;5072456;28;20281;-79
2022/06/18 01:21:02;;;;;;;0.00;0.00;;;;;;;;;;5058413;28;20302;-79
2022/06/18 01:23:34;;;;;;;0.00;0.00;;;;;;;;;;5072890;28;20539;-80
2022/06/18 01:26:02;;;;;;;0.00;0.00;;;;;;;;;;5061961;28;20330;-85
2022/06/18 01:28:29;;;;;;;0.00;0.00;;;;;;;;;;5055375;28;20227;-84
2022/06/18 01:30:55;;;;;;;0.00;0.00;;;;;;;;;;5061073;28;20253;-83
2022/06/18 01:33:22;;;;;;;0.00;0.00;;;;;;;;;;5073945;28;20506;-83
2022/06/18 01:35:51;;;;;;;0.00;0.00;;;;;;;;;;5060557;28;20291;-83
2022/06/18 01:38:18;;;;;;;0.00;0.00;;;;;;;;;;5074478;28;20495;-81
2022/06/18 01:40:50;;;;;;;0.00;0.00;;;;;;;;;;5059786;28;20250;-81
2022/06/18 01:43:19;;;;;;;0.00;0.00;;;;;;;;;;5074378;28;20305;-81
2022/06/18 01:45:47;;;;;;;0.00;0.00;;;;;;;;;;5059478;28;20250;-79
2022/06/18 01:48:16;;;;;;;0.00;0.00;;;;;;;;;;5074359;28;20212;-81
2022/06/18 01:50:45;;;;;;;0.00;0.00;;;;;;;;;;5059234;28;20556;-81
2022/06/18 01:53:13;;;;;;;0.00;0.00;;;;;;;;;;5074919;28;20393;-81
2022/06/18 01:55:43;;;;;;;0.00;0.00;;;;;;;;;;5058948;28;20445;-81
2022/06/18 01:58:11;;;;;;;0.00;0.00;;;;;;;;;;5074599;28;20218;-80
2022/06/18 02:00:40;;;;;;;0.00;0.00;;;;;;;;;;5058150;28;20239;-79
2022/06/18 02:03:07;;;;;;;0.00;0.00;;;;;;;;;;5075350;28;20417;-79
2022/06/18 02:05:34;;;;;;;0.00;0.00;;;;;;;;;;5057706;28;20267;-85
2022/06/18 02:08:00;;;;;;;0.00;0.00;;;;;;;;;;5075427;28;20277;-85
2022/06/18 02:10:28;;;;;;;0.00;0.00;;;;;;;;;;5056279;28;20292;-84
2022/06/18 02:12:57;;;;;;;0.00;0.00;;;;;;;;;;5076179;28;20206;-81
2022/06/18 02:15:26;;;;;;;0.00;0.00;;;;;;;;;;5056131;28;20233;-81
2022/06/18 02:17:54;;;;;;;0.00;0.00;;;;;;;;;;5076397;28;20196;-80
2022/06/18 02:20:22;;;;;;;0.00;0.00;;;;;;;;;;5055291;28;20277;-82
2022/06/18 02:22:50;;;;;;;0.10;0.10;;;;;;;;;;5076545;28;20227;-80
2022/06/18 02:25:17;;;;;;;0.00;0.00;;;;;;;;;;5055405;28;20225;-80
2022/06/18 02:27:44;;;;;;;0.00;0.00;;;;;;;;;;5077487;28;20247;-81
2022/06/18 02:30:15;;;;;;;0.05;0.05;;;;;;;;;;5054553;28;20241;-80
2022/06/18 02:32:46;;;;;;;0.00;0.00;;;;;;;;;;5078181;28;20209;-84
2022/06/18 02:35:15;;;;;;;0.10;0.10;;;;;;;;;;5054668;28;20292;-84
2022/06/18 02:37:41;;;;;;;0.00;0.00;;;;;;;;;;5077189;28;20223;-83
2022/06/18 02:40:16;;;;;;;0.00;0.00;;;;;;;;;;5053764;28;20272;-82
2022/06/18 02:42:42;;;;;;;0.00;0.00;;;;;;;;;;5077458;28;20228;-86
2022/06/18 02:45:09;;;;;;;0.00;0.00;;;;;;;;;;5053889;28;20203;-84
2022/06/18 02:47:36;;;;;;;0.03;0.03;;;;;;;;;;5078079;28;20203;-84
2022/06/18 02:50:04;;;;;;;0.00;0.00;;;;;;;;;;5062892;28;20416;-83
2022/06/18 02:52:34;;;;;;;0.00;0.00;;;;;;;;;;5015358;28;20231;-80
2022/06/18 02:55:02;;;;;;;0.00;0.00;;;;;;;;;;5043260;28;20208;-80
2022/06/18 02:57:29;;;;;;;0.00;0.00;;;;;;;;;;5048647;28;20258;-80
2022/06/18 02:59:58;;;;;;;0.00;0.00;;;;;;;;;;5043332;28;20395;-80
2022/06/18 03:02:24;;;;;;;0.00;0.00;;;;;;;;;;5048138;28;20571;-81
2022/06/18 03:04:51;;;;;;;0.00;0.00;;;;;;;;;;5043019;28;20231;-81
2022/06/18 03:07:17;;;;;;;0.00;0.00;;;;;;;;;;5048499;28;20242;-80
2022/06/18 03:12:29;;;;;;;0.00;0.00;;;;;;;;;;5048446;28;20420;-81
2022/06/18 03:14:55;;;;;;;0.08;0.08;;;;;;;;;;5042648;28;20212;-80
2022/06/18 03:17:22;;;;;;;0.00;0.00;;;;;;;;;;5048251;28;20465;-79
2022/06/18 03:19:52;;;;;;;0.10;0.10;;;;;;;;;;5042415;28;20256;-80
2022/06/18 03:22:20;;;;;;;0.00;0.00;;;;;;;;;;5048132;28;20302;-81
2022/06/18 03:24:48;;;;;;;0.00;0.00;;;;;;;;;;5042575;28;20223;-80
2022/06/18 03:27:15;;;;;;;0.08;0.08;;;;;;;;;;5047721;28;20275;-80
2022/06/18 03:29:41;;;;;;;0.00;0.00;;;;;;;;;;5042402;28;20261;-80
2022/06/18 03:32:08;;;;;;;0.00;0.00;;;;;;;;;;5047723;28;20482;-80
2022/06/18 03:34:35;;;;;;;0.00;0.00;;;;;;;;;;5042321;28;20236;-80
2022/06/18 03:37:03;;;;;;;0.10;0.10;;;;;;;;;;5046982;28;20245;-80
2022/06/18 03:39:29;;;;;;;0.00;0.00;;;;;;;;;;5042730;28;20204;-79
2022/06/18 03:41:58;;;;;;;0.00;0.00;;;;;;;;;;5046485;28;20321;-81
2022/06/18 03:44:25;;;;;;;0.08;0.08;;;;;;;;;;5043287;28;20458;-80
2022/06/18 03:46:54;;;;;;;0.10;0.10;;;;;;;;;;5045922;28;20256;-80
2022/06/18 03:49:24;;;;;;;0.00;0.00;;;;;;;;;;5043767;28;20198;-85
2022/06/18 03:51:51;;;;;;;0.20;0.20;;;;;;;;;;5045807;28;20241;-83
2022/06/18 03:54:17;;;;;;;0.00;0.00;;;;;;;;;;5044707;28;20207;-84
2022/06/18 03:56:44;;;;;;;0.00;0.00;;;;;;;;;;5044383;28;20239;-83
2022/06/18 03:59:17;;;;;;;0.00;0.00;;;;;;;;;;5045066;28;20264;-85
2022/06/18 04:01:51;;;;;;;0.00;0.00;;;;;;;;;;5043797;28;20247;-83
2022/06/18 04:04:17;;;;;;;0.00;0.00;;;;;;;;;;5044628;28;20188;-80
2022/06/18 04:06:44;;;;;;;0.00;0.00;;;;;;;;;;5044117;28;20305;-81
2022/06/18 04:09:11;;;;;;;0.00;0.00;;;;;;;;;;5045246;28;20280;-81
2022/06/18 04:11:37;;;;;;;0.00;0.00;;;;;;;;;;5043818;28;20314;-80
2022/06/18 04:14:07;;;;;;;0.00;0.00;;;;;;;;;;5045598;28;20207;-79
2022/06/18 04:16:34;;;;;;;0.00;0.00;;;;;;;;;;5041921;28;20310;-80
2022/06/18 04:19:01;;;;;;;0.00;0.00;;;;;;;;;;5045929;28;20198;-80
2022/06/18 04:21:27;;;;;;;0.00;0.00;;;;;;;;;;5042434;28;20262;-79
2022/06/18 04:23:54;;;;;;;0.00;0.00;;;;;;;;;;5046893;28;20440;-79
2022/06/18 04:26:21;;;;;;;0.00;0.00;;;;;;;;;;5041429;28;20541;-80
2022/06/18 04:28:47;;;;;;;0.00;0.00;;;;;;;;;;5047398;28;20618;-80
2022/06/18 04:31:17;;;;;;;0.00;0.00;;;;;;;;;;5041103;28;20520;-79
2022/06/18 04:33:46;;;;;;;0.00;0.00;;;;;;;;;;5048415;28;20251;-83
2022/06/18 04:36:19;;;;;;;0.00;0.00;;;;;;;;;;5040674;28;20474;-83
2022/06/18 04:38:45;;;;;;;0.03;0.03;;;;;;;;;;5048400;28;20261;-83
2022/06/18 04:41:12;;;;;;;0.00;0.00;;;;;;;;;;5040613;28;20535;-83
2022/06/18 04:43:38;;;;;;;0.03;0.03;;;;;;;;;;5048913;28;20235;-79
2022/06/18 04:46:06;;;;;;;0.00;0.00;;;;;;;;;;5042576;28;20324;-79
2022/06/18 04:48:32;;;;;;;0.00;0.00;;;;;;;;;;5053199;28;20227;-78
2022/06/18 04:51:00;;;;;;;0.00;0.00;;;;;;;;;;5042971;28;20251;-85
2022/06/18 04:53:26;;;;;;;0.00;0.00;;;;;;;;;;5053931;28;20231;-84
2022/06/18 04:55:53;;;;;;;0.00;0.00;;;;;;;;;;5041633;28;20323;-83
2022/06/18 04:58:19;;;;;;;0.00;0.00;;;;;;;;;;5037550;28;20555;-84
2022/06/18 05:00:51;;;;;;;0.00;0.00;;;;;;;;;;5040671;28;20308;-83
2022/06/18 05:03:20;;;;;;;0.00;0.00;;;;;;;;;;5054865;28;20207;-83
2022/06/18 05:05:47;;;;;;;0.00;0.00;;;;;;;;;;5040801;28;20338;-84
2022/06/18 05:08:15;;;;;;;0.00;0.00;;;;;;;;;;5055605;28;20511;-84
2022/06/18 05:10:42;;;;;;;0.00;0.00;;;;;;;;;;5040493;28;20378;-84
2022/06/18 05:13:08;;;;;;;0.00;0.00;;;;;;;;;;5055837;28;20225;-83
2022/06/18 05:15:35;;;;;;;0.00;0.00;;;;;;;;;;5039554;28;20384;-85
2022/06/18 05:18:03;;;;;;;0.10;0.10;;;;;;;;;;5057169;28;20274;-84
2022/06/18 05:20:30;;;;;;;0.00;0.00;;;;;;;;;;5038707;28;20308;-85
2022/06/18 05:22:56;;;;;;;0.00;0.00;;;;;;;;;;5057352;28;20299;-84
2022/06/18 05:25:24;;;;;;;0.00;0.00;;;;;;;;;;5037398;28;20206;-83
2022/06/18 05:27:50;;;;;;;0.00;0.00;;;;;;;;;;5057866;28;20235;-83
2022/06/18 05:30:18;;;;;;;0.00;0.00;;;;;;;;;;5036476;28;20198;-83
2022/06/18 05:32:45;;;;;;;0.00;0.00;;;;;;;;;;5058550;28;20249;-85
2022/06/18 05:35:12;;;;;;;0.10;0.10;;;;;;;;;;5035662;28;20212;-83
2022/06/18 05:37:39;;;;;;;0.10;0.10;;;;;;;;;;5059685;28;20469;-84
2022/06/18 05:40:05;;;;;;;0.10;0.10;;;;;;;;;;5038800;28;20208;-83
2022/06/18 05:42:33;;;;;;;0.00;0.00;;;;;;;;;;5060370;28;20218;-83
2022/06/18 05:45:00;;;;;;;0.00;0.00;;;;;;;;;;5044847;28;20421;-79
2022/06/18 05:47:27;;;;;;;0.00;0.00;;;;;;;;;;5050563;28;20493;-80
2022/06/18 05:49:56;;;;;;;0.00;0.00;;;;;;;;;;5044935;28;20205;-80
2022/06/18 05:52:22;;;;;;;0.00;0.00;;;;;;;;;;5050318;28;20246;-80
2022/06/18 05:54:50;;;;;;;0.00;0.00;;;;;;;;;;5044321;28;20201;-79
2022/06/18 05:57:17;;;;;;;0.00;0.00;;;;;;;;;;5049652;28;20245;-79
2022/06/18 05:59:45;;;;;;;0.00;0.00;;;;;;;;;;5044449;28;20230;-78
2022/06/18 06:02:15;;;;;;;0.10;0.10;;;;;;;;;;5049713;28;20304;-78
2022/06/18 06:04:42;;;;;;;0.00;0.00;;;;;;;;;;5044362;28;20237;-79
2022/06/18 06:07:09;;;;;;;0.00;0.00;;;;;;;;;;5032701;28;20272;-78
2022/06/18 06:12:20;;;;;;;0.00;0.00;;;;;;;;;;5049652;28;20583;-79
2022/06/18 06:14:48;;;;;;;0.00;0.00;;;;;;;;;;5044444;28;20204;-80
2022/06/18 06:17:16;;;;;;;0.00;0.00;;;;;;;;;;5049590;28;20238;-80
2022/06/18 06:19:43;;;;;;;0.00;0.00;;;;;;;;;;5044470;28;20322;-80
2022/06/18 06:22:10;;;;;;;0.00;0.00;;;;;;;;;;5049271;28;20465;-81
2022/06/18 06:24:38;;;;;;;0.00;0.00;;;;;;;;;;5044039;28;20238;-80
2022/06/18 06:27:04;;;;;;;0.00;0.00;;;;;;;;;;5049011;28;20253;-80
2022/06/18 06:29:31;;;;;;;0.00;0.00;;;;;;;;;;5043621;28;20226;-79
2022/06/18 06:31:59;;;;;;;0.00;0.00;;;;;;;;;;5048236;28;20486;-81
2022/06/18 06:34:25;;;;;;;0.00;0.00;;;;;;;;;;5044217;28;20258;-81
2022/06/18 06:36:52;;;;;;;0.00;0.00;;;;;;;;;;5047084;28;20239;-80
2022/06/18 06:39:18;;;;;;;0.00;0.00;;;;;;;;;;5045295;28;20206;-81
2022/06/18 06:41:45;;;;;;;0.00;0.00;;;;;;;;;;5046349;28;20237;-79
2022/06/18 06:44:12;;;;;;;0.00;0.00;;;;;;;;;;5028147;28;20223;-79
2022/06/18 06:46:38;;;;;;;0.00;0.00;;;;;;;;;;5045484;28;20243;-80
2022/06/18 06:49:06;;;;;;;0.00;0.00;;;;;;;;;;5046605;28;20291;-80
2022/06/18 06:51:33;;;;;;;0.00;0.00;;;;;;;;;;5044847;28;20239;-79
2022/06/18 06:54:00;;;;;;;0.00;0.00;;;;;;;;;;5047094;28;20271;-79
2022/06/18 06:59:11;;;;;;;0.00;0.00;;;;;;;;;;5045907;28;20246;-84
2022/06/18 07:01:38;;;;;;;0.00;0.00;;;;;;;;;;5044816;28;20633;-83
2022/06/18 07:04:09;;;;;;;0.00;0.00;;;;;;;;;;5046678;28;20276;-83
2022/06/18 07:06:35;;;;;;;0.00;0.00;;;;;;;;;;5044469;28;20239;-79
2022/06/18 07:09:02;;;;;;;0.00;0.00;;;;;;;;;;5046680;28;20205;-79
2022/06/18 07:11:28;;;;;;;0.00;0.00;;;;;;;;;;5043761;28;20259;-79
2022/06/18 07:13:55;;;;;;;0.00;0.00;;;;;;;;;;5047608;28;20204;-79
2022/06/18 07:16:22;;;;;;;0.00;0.00;;;;;;;;;;5042750;28;20259;-79
2022/06/18 07:18:49;;;;;;;0.00;0.00;;;;;;;;;;5048319;28;20227;-80
2022/06/18 07:21:19;;;;;;;0.00;0.00;;;;;;;;;;5041898;28;20363;-80
2022/06/18 07:23:48;;;;;;;0.00;0.00;;;;;;;;;;5048867;28;20196;-79
2022/06/18 07:26:16;;;;;;;0.00;0.00;;;;;;;;;;5024148;28;20236;-81
2022/06/18 07:28:43;;;;;;;0.00;0.00;;;;;;;;;;5049504;28;20248;-83
2022/06/18 07:31:11;;;;;;;0.00;0.00;;;;;;;;;;5041203;28;20296;-84
2022/06/18 07:33:38;;;;;;;0.00;0.00;;;;;;;;;;5049705;28;20204;-84
2022/06/18 07:36:04;;;;;;;0.00;0.00;;;;;;;;;;5040485;28;20240;-83
2022/06/18 07:38:32;;;;;;;0.00;0.00;;;;;;;;;;5050165;28;20274;-83
2022/06/18 07:44:22;;;;;;;0.00;0.00;;;;;;;;;;5041819;28;20215;-85
2022/06/18 07:46:49;;;;;;;0.00;0.00;;;;;;;;;;5034214;28;20232;-83
2022/06/18 07:49:18;;;;;;;0.00;0.00;;;;;;;;;;5043143;28;20205;-82
2022/06/18 07:51:45;;;;;;;0.00;0.00;;;;;;;;;;5046060;28;20246;-82
2022/06/18 07:54:14;;;;;;;0.00;0.00;;;;;;;;;;5045757;28;20243;-81
2022/06/18 07:56:41;;;;;;;0.25;0.25;;;;;;;;;;5027760;28;20242;-83
2022/06/18 07:59:11;;;;;;;0.00;0.00;;;;;;;;;;5045488;28;20414;-81
2022/06/18 08:01:38;;;;;;;0.00;0.00;;;;;;;;;;5042393;28;20303;-81
2022/06/18 08:04:05;;;;;;;0.00;0.00;;;;;;;;;;5045576;28;20239;-82
2022/06/18 08:06:32;;;;;;;0.00;0.00;;;;;;;;;;5043271;28;20422;-81
2022/06/18 08:08:58;;;;;;;0.00;0.00;;;;;;;;;;5046578;28;20526;-80
2022/06/18 08:11:29;;;;;;;0.00;0.00;;;;;;;;;;5042063;28;20311;-82
2022/06/18 08:13:56;;;;;;;0.00;0.00;;;;;;;;;;5029366;28;20209;-81
2022/06/18 08:16:23;;;;;;;0.00;0.00;;;;;;;;;;5042028;28;20375;-82
2022/06/18 08:18:50;;;;;;;0.10;0.10;;;;;;;;;;5047439;28;20240;-82
2022/06/18 08:21:18;;;;;;;0.00;0.00;;;;;;;;;;5043861;28;20508;-83
2022/06/18 08:23:46;;;;;;;0.00;0.00;;;;;;;;;;5052555;28;20203;-80
2022/06/18 08:26:12;;;;;;;0.00;0.00;;;;;;;;;;5044307;28;20581;-80
2022/06/18 08:28:41;;;;;;;0.00;0.00;;;;;;;;;;5052663;28;20221;-80
2022/06/18 08:31:08;;;;;;;0.00;0.00;;;;;;;;;;5043528;28;20247;-82
2022/06/18 08:33:36;;;;;;;0.00;0.00;;;;;;;;;;5053369;28;20261;-80
2022/06/18 08:36:05;;;;;;;0.00;0.00;;;;;;;;;;5042847;28;20319;-76
2022/06/18 08:38:32;;;;;;;0.00;0.00;;;;;;;;;;5053449;28;20235;-80
2022/06/18 08:41:03;;;;;;;0.00;0.00;;;;;;;;;;5042316;28;20263;-80
2022/06/18 08:43:48;;;;;;;0.00;0.00;;;;;;;;;;5053464;28;20236;-76
2022/06/18 08:46:20;;;;;;;0.00;0.00;;;;;;;;;;5033649;28;20307;-79
2022/06/18 08:49:01;;;;;;;0.00;0.00;;;;;;;;;;5051315;28;20349;-82
2022/06/18 08:51:34;;;;;;;0.00;0.00;;;;;;;;;;5045890;28;20250;-79
2022/06/18 08:54:05;;;;;;;0.00;0.00;;;;;;;;;;5049522;28;20260;-82
2022/06/18 08:56:35;;;;;;;0.00;0.00;;;;;;;;;;5046191;28;20266;-84
2022/06/18 08:59:07;;;;;;;0.00;0.00;;;;;;;;;;5049086;28;20235;-81
2022/06/18 09:01:37;;;;;;;0.00;0.00;;;;;;;;;;5045788;28;20260;-81
2022/06/18 09:04:13;;;;;;;0.00;0.00;;;;;;;;;;5049185;28;20201;-69
2022/06/18 09:06:43;;;;;;;0.00;0.00;;;;;;;;;;5046813;28;20239;-67
2022/06/18 09:09:13;;;;;;;0.00;0.00;;;;;;;;;;5047826;28;20205;-67
2022/06/18 09:12:03;;;;;;;0.00;0.00;;;;;;;;;;5046516;28;20240;-69
2022/06/18 09:14:33;;;;;;;0.00;0.00;;;;;;;;;;5030475;28;20512;-71
2022/06/18 09:17:09;;;;;;;0.00;0.00;;;;;;;;;;5049638;28;20307;-68
2022/06/18 09:19:36;;;;;;;0.00;0.00;;;;;;;;;;5045156;28;20216;-70
2022/06/18 09:22:04;;;;;;;0.00;0.00;;;;;;;;;;5049709;28;20289;-72
2022/06/18 09:24:35;;;;;;;0.00;0.00;;;;;;;;;;5044964;28;20334;-83
2022/06/18 09:27:05;;;;;;;0.00;0.00;;;;;;;;;;5049465;28;20474;-85
2022/06/18 09:29:34;;;;;;;0.00;0.00;;;;;;;;;;5045467;28;20221;-82
2022/06/18 09:32:06;;;;;;;0.00;0.00;;;;;;;;;;5049023;28;20266;-83
2022/06/18 09:34:35;;;;;;;0.00;0.00;;;;;;;;;;5045455;28;20192;-82
2022/06/18 09:37:05;;;;;;;0.00;0.00;;;;;;;;;;5050718;28;20248;-86
2022/06/18 09:39:34;;;;;;;0.00;0.00;;;;;;;;;;5045630;28;20293;-75
2022/06/18 09:42:04;;;;;;;0.00;0.00;;;;;;;;;;5049075;28;20289;-72
2022/06/18 09:44:34;;;;;;;0.00;0.00;;;;;;;;;;5044992;28;20212;-78
2022/06/18 09:47:05;;;;;;;0.00;0.00;;;;;;;;;;5049321;28;20255;-79
2022/06/18 09:49:32;;;;;;;0.00;0.00;;;;;;;;;;5045038;28;20208;-79
2022/06/18 09:52:02;;;;;;;0.00;0.00;;;;;;;;;;5048381;28;20263;-85
2022/06/18 09:54:31;;;;;;;0.00;0.00;;;;;;;;;;5045620;28;20251;-79
2022/06/18 09:56:59;;;;;;;0.00;0.00;;;;;;;;;;5049038;28;20247;-82
2022/06/18 09:59:29;;;;;;;0.00;0.00;;;;;;;;;;5045557;28;20255;-79
2022/06/18 10:01:56;;;;;;;0.00;0.00;;;;;;;;;;5048252;28;20282;-82
2022/06/18 10:07:15;;;;;;;0.00;0.00;;;;;;;;;;5049557;28;20243;-74
2022/06/18 10:09:43;;;;;;;0.00;0.00;;;;;;;;;;5044742;28;20534;-84
2022/06/18 10:12:15;;;;;;;0.00;0.00;;;;;;;;;;5049579;28;20240;-81
2022/06/18 10:14:43;;;;;;;0.00;0.00;;;;;;;;;;5044029;28;20260;-82
2022/06/18 10:17:13;;;;;;;0.00;0.00;;;;;;;;;;5048850;28;20298;-80
2022/06/18 10:19:48;;;;;;;0.00;0.00;;;;;;;;;;5043662;28;20284;-77
2022/06/18 10:22:19;;;;;;;0.00;0.00;;;;;;;;;;5049305;28;20450;-79
2022/06/18 10:24:51;;;;;;;0.00;0.00;;;;;;;;;;5043894;28;20488;-82
2022/06/18 10:27:21;;;;;;;0.00;0.00;;;;;;;;;;5049366;28;20282;-82
2022/06/18 10:29:52;;;;;;;0.00;0.00;;;;;;;;;;5044460;28;20422;-82
2022/06/18 10:32:26;;;;;;;0.00;0.00;;;;;;;;;;5049275;28;20243;-81
2022/06/18 10:35:05;;;;;;;0.00;0.00;;;;;;;;;;5043483;28;20208;-79
2022/06/18 10:37:36;;;;;;;0.00;0.00;;;;;;;;;;5015524;28;20271;-77
2022/06/18 10:40:05;;;;;;;0.00;0.00;;;;;;;;;;5043204;28;20224;-79
2022/06/18 10:42:40;;;;;;;0.00;0.00;;;;;;;;;;5014778;28;20550;-78
2022/06/18 10:45:13;;;;;;;0.00;0.00;;;;;;;;;;5033443;28;20322;-79
2022/06/18 10:47:42;;;;;;;0.00;0.00;;;;;;;;;;5057245;28;20216;-78
2022/06/18 10:50:12;;;;;;;0.00;0.00;;;;;;;;;;5033286;28;20209;-81
2022/06/18 10:52:42;;;;;;;0.00;0.00;;;;;;;;;;5057623;28;20207;-79
2022/06/18 10:55:13;;;;;;;0.00;0.00;;;;;;;;;;5033592;28;20204;-79
2022/06/18 10:57:44;;;;;;;0.00;0.00;;;;;;;;;;5057660;28;20220;-78
2022/06/18 11:00:12;;;;;;;0.00;0.00;;;;;;;;;;5033047;28;20450;-77
2022/06/18 11:02:39;;;;;;;0.00;0.00;;;;;;;;;;5057167;28;20209;-78
2022/06/18 11:05:13;;;;;;;0.00;0.00;;;;;;;;;;5038174;28;20208;-79
2022/06/18 11:07:46;;;;;;;0.00;0.00;;;;;;;;;;5042689;28;20219;-79
2022/06/18 11:10:22;;;;;;;0.00;0.00;;;;;;;;;;5033704;28;20268;-78
2022/06/18 11:12:53;;;;;;;0.00;0.00;;;;;;;;;;5055930;28;20193;-78
2022/06/18 11:15:25;;;;;;;0.00;0.00;;;;;;;;;;5033720;28;20280;-79
2022/06/18 11:17:51;;;;;;;0.00;0.00;;;;;;;;;;5055327;28;20493;-80
2022/06/18 11:20:19;;;;;;;0.00;0.00;;;;;;;;;;5016223;28;20209;-79
2022/06/18 11:22:51;;;;;;;0.00;0.00;;;;;;;;;;5056201;28;20205;-80
2022/06/18 11:25:25;;;;;;;0.00;0.00;;;;;;;;;;5034134;28;20220;-80
2022/06/18 11:27:52;;;;;;;0.00;0.00;;;;;;;;;;5054900;28;20228;-81
2022/06/18 11:30:22;;;;;;;0.00;0.00;;;;;;;;;;5034008;28;20372;-79
2022/06/18 11:32:50;;;;;;;0.00;0.00;;;;;;;;;;5055671;28;20259;-79
2022/06/18 11:35:20;;;;;;;0.10;0.10;;;;;;;;;;5033634;28;20208;-80
2022/06/18 11:37:57;;;;;;;0.00;0.00;;;;;;;;;;5055782;28;20205;-80
2022/06/18 11:40:24;;;;;;;0.00;0.00;;;;;;;;;;5034363;28;20586;-80
2022/06/18 11:42:52;;;;;;;0.00;0.00;;;;;;;;;;5055085;28;20426;-81
2022/06/18 11:45:24;;;;;;;0.00;0.00;;;;;;;;;;5034244;28;20475;-79
2022/06/18 11:47:52;;;;;;;0.00;0.00;;;;;;;;;;5055009;28;20508;-80
2022/06/18 11:50:23;;;;;;;0.03;0.03;;;;;;;;;;5015771;28;20251;-79
2022/06/18 11:52:51;;;;;;;0.00;0.00;;;;;;;;;;5055313;28;20530;-81
2022/06/18 11:55:22;;;;;;;0.00;0.00;;;;;;;;;;5033085;28;20205;-81
2022/06/18 11:57:52;;;;;;;0.00;0.00;;;;;;;;;;5055443;28;20508;-79
2022/06/18 12:00:20;;;;;;;0.00;0.00;;;;;;;;;;5034227;28;20232;-80
2022/06/18 12:02:52;;;;;;;0.00;0.00;;;;;;;;;;5056315;28;20200;-82
2022/06/18 12:05:22;;;;;;;0.00;0.00;;;;;;;;;;5034154;28;20243;-81
2022/06/18 12:07:54;;;;;;;0.00;0.00;;;;;;;;;;5055744;28;20267;-81
2022/06/18 12:10:35;;;;;;;0.00;0.00;;;;;;;;;;5033929;28;20323;-80
2022/06/18 12:13:06;;;;;;;0.00;0.00;;;;;;;;;;5053902;28;20205;-81
2022/06/18 12:15:37;;;;;;;0.00;0.00;;;;;;;;;;5034014;28;20282;-80
2022/06/18 12:18:08;;;;;;;0.00;0.00;;;;;;;;;;5053692;28;20224;-81
2022/06/18 12:20:41;;;;;;;0.00;0.00;;;;;;;;;;5034885;28;20259;-80
2022/06/18 12:23:14;;;;;;;0.00;0.00;;;;;;;;;;5053506;28;20409;-81
2022/06/18 12:25:50;;;;;;;0.00;0.00;;;;;;;;;;5036692;28;20240;-80
2022/06/18 12:28:23;;;;;;;0.00;0.00;;;;;;;;;;5052348;28;20212;-79
2022/06/18 12:30:55;;;;;;;0.00;0.00;;;;;;;;;;5020294;28;20744;-79
2022/06/18 12:33:25;;;;;;;0.00;0.00;;;;;;;;;;5050703;28;20205;-79
2022/06/18 12:35:56;;;;;;;0.00;0.00;;;;;;;;;;5037312;28;20243;-81
2022/06/18 12:38:31;;;;;;;0.00;0.00;;;;;;;;;;5050558;28;20204;-78
2022/06/18 12:41:04;;;;;;;0.00;0.00;;;;;;;;;;5038481;28;20239;-80
2022/06/18 12:43:33;;;;;;;0.00;0.00;;;;;;;;;;5049786;28;20223;-82
2022/06/18 12:46:02;;;;;;;0.00;0.00;;;;;;;;;;5036290;28;20251;-81
2022/06/18 12:48:32;;;;;;;0.00;0.00;;;;;;;;;;5051863;28;20467;-81
2022/06/18 12:51:05;;;;;;;0.00;0.00;;;;;;;;;;5035573;28;20251;-80
2022/06/18 12:53:54;;;;;;;0.00;0.00;;;;;;;;;;5052406;28;20550;-82
2022/06/18 12:56:28;;;;;;;0.00;0.00;;;;;;;;;;5034397;28;20482;-82
2022/06/18 12:58:59;;;;;;;0.00;0.00;;;;;;;;;;5048872;28;20233;-79
2022/06/18 13:01:30;;;;;;;0.00;0.00;;;;;;;;;;5041407;28;20248;-82
2022/06/18 13:04:16;;;;;;;0.00;0.00;;;;;;;;;;5046819;28;20220;-82
2022/06/18 13:06:46;;;;;;;0.55;0.55;;;;;;;;;;5046129;28;20387;-81
2022/06/18 13:09:17;;;;;;;0.00;0.00;;;;;;;;;;5048102;28;20239;-82
2022/06/18 13:11:51;;;;;;;0.00;0.00;;;;;;;;;;5047539;28;20381;-81
2022/06/18 13:14:24;;;;;;;0.00;0.00;;;;;;;;;;5047139;28;20200;-81
2022/06/18 13:16:54;;;;;;;0.00;0.00;;;;;;;;;;5048241;28;20294;-83
2022/06/18 13:19:24;;;;;;;0.00;0.00;;;;;;;;;;5046609;28;20259;-79
2022/06/18 13:21:51;;;;;;;0.00;0.00;;;;;;;;;;5048285;28;20617;-80
2022/06/18 13:29:52;;;;;;;0.00;0.00;;;;;;;;;;5044781;28;20199;-80
2022/06/18 13:32:24;;;;;;;0.00;0.00;;;;;;;;;;5049924;28;20246;-80
2022/06/18 13:35:05;;;;;;;0.00;0.00;;;;;;;;;;5044981;28;20363;-81
2022/06/18 13:37:38;;;;;;;0.00;0.00;;;;;;;;;;5050071;28;20262;-79
2022/06/18 13:40:11;;;;;;;0.00;0.00;;;;;;;;;;5044624;28;20236;-80
2022/06/18 13:42:42;;;;;;;0.00;0.00;;;;;;;;;;5016781;28;20519;-80
2022/06/18 13:45:15;;;;;;;0.00;0.00;;;;;;;;;;5034994;28;20268;-80
2022/06/18 13:47:46;;;;;;;0.00;0.00;;;;;;;;;;5058352;28;20334;-79
2022/06/18 13:50:16;;;;;;;0.00;0.00;;;;;;;;;;5035356;28;20200;-81
2022/06/18 13:52:44;;;;;;;0.00;0.00;;;;;;;;;;5058463;28;20237;-82
2022/06/18 13:55:12;;;;;;;0.00;0.00;;;;;;;;;;5034767;28;20272;-81
2022/06/18 13:57:56;;;;;;;0.00;0.00;;;;;;;;;;5140826;27;20540;-81
2022/06/18 14:00:24;;;;;;;0.00;0.00;;;;;;;;;;5127830;27;20205;-81
2022/06/18 14:02:56;;;;;;;0.00;0.00;;;;;;;;;;5112890;28;20422;-78
2022/06/18 14:05:35;;;;;;;0.00;0.00;;;;;;;;;;5091632;28;20210;-83
2022/06/18 14:08:03;;;;;;;0.00;0.00;;;;;;;;;;5112199;28;20203;-81
2022/06/18 14:10:30;;;;;;;0.00;0.00;;;;;;;;;;5092910;28;20238;-81
2022/06/18 14:12:59;;;;;;;0.00;0.00;;;;;;;;;;5112599;28;20376;-83
2022/06/18 14:15:27;;;;;;;0.00;0.00;;;;;;;;;;5092751;28;20283;-81
2022/06/18 14:17:56;;;;;;;0.00;0.00;;;;;;;;;;5112384;28;20297;-80
2022/06/18 14:20:24;;;;;;;0.00;0.00;;;;;;;;;;5091447;28;20285;-81
2022/06/18 14:22:58;;;;;;;0.00;0.00;;;;;;;;;;5112936;28;20245;-81
2022/06/18 14:25:26;;;;;;;0.00;0.00;;;;;;;;;;5091782;28;20572;-81
2022/06/18 14:27:53;;;;;;;0.00;0.00;;;;;;;;;;5112188;28;20231;-80
2022/06/18 14:30:23;;;;;;;0.00;0.00;;;;;;;;;;5090875;28;20210;-81
2022/06/18 14:32:52;;;;;;;0.00;0.00;;;;;;;;;;5112502;28;20218;-80
2022/06/18 14:35:26;;;;;;;0.00;0.00;;;;;;;;;;5090389;28;20203;-79
2022/06/18 14:37:53;;;;;;;0.00;0.00;;;;;;;;;;5111500;28;20282;-80
2022/06/18 14:40:22;;;;;;;0.00;0.00;;;;;;;;;;5090678;28;20243;-77
2022/06/18 14:43:04;;;;;;;0.00;0.00;;;;;;;;;;5112408;28;20230;-80
2022/06/18 14:45:36;;;;;;;0.00;0.00;;;;;;;;;;5086954;28;20440;-79
2022/06/18 14:48:20;;;;;;;0.00;0.00;;;;;;;;;;5110715;28;20248;-79
2022/06/18 14:51:00;;;;;;;0.00;0.00;;;;;;;;;;5093824;28;20237;-79
2022/06/18 14:53:42;;;;;;;0.00;0.00;;;;;;;;;;5107650;28;20286;-78
2022/06/18 14:56:15;;;;;;;0.00;0.00;;;;;;;;;;5096717;28;20479;-79
2022/06/18 14:59:00;;;;;;;0.05;0.05;;;;;;;;;;5105382;28;20222;-78
2022/06/18 15:01:46;;;;;;;0.00;0.00;;;;;;;;;;5099099;28;20627;-80
2022/06/18 15:04:18;;;;;;;0.00;0.00;;;;;;;;;;5101433;28;20207;-77
2022/06/18 15:06:44;;;;;;;0.00;0.00;;;;;;;;;;5101106;28;20230;-76
2022/06/18 15:09:13;;;;;;;0.00;0.00;;;;;;;;;;5088301;28;20230;-77
2022/06/18 15:11:41;;;;;;;0.00;0.00;;;;;;;;;;5086825;28;20254;-77
2022/06/18 15:14:11;;;;;;;0.00;0.00;;;;;;;;;;5088041;28;20204;-77
2022/06/18 15:16:47;;;;;;;0.00;0.00;;;;;;;;;;5086246;28;20310;-79
2022/06/18 15:19:27;;;;;;;0.00;0.00;;;;;;;;;;5086796;28;20203;-78